Details From KDEQ - J Lynn Helms Sevier Co
To KFLP - Marion Co Rgnl
Flight Number -
Tags Decoded
Created
Modified
Stats Distance 195 nm / 361 km
Max Altitude 0 ft / 0 m
Waypoints 5
Social Downloads 2
Likes 0
Share VATSIM

Download

Looking for another format? Having issues loading an existing format? Contact us
Advertisement - Login to hide

Notes

Decoded

Route

DEENS PGO FSM HRO MUVUE

ID Type Via Altitude Latitude Longitude Leg Dist Tot Dist Heading (true) Name
O DEENS FIX - 0 ft / 0 m 34.00743˚ -94.29794˚ - 0 nm - -
PGO VOR - 0 ft / 0 m 34.68044˚ -94.60900˚ 43 nm 43 nm 339° / 339° RICH MOUNTAIN VORTAC
FSM VOR - 0 ft / 0 m 35.38842˚ -94.27153˚ 45 nm 88 nm 21° / 21° FORT SMITH VORTAC
HRO VOR - 0 ft / 0 m 36.31831˚ -93.21328˚ 75 nm 164 nm 42° / 43° HARRISON VOR-DME
O MUVUE FIX - 0 ft / 0 m 36.26578˚ -92.59650˚ 30 nm 194 nm 96° / 96° -

Altitude Profile

Advertisement - Login to hide

Weather


0- 5 10 15 20 25 30 35+ Temperature / ° C

Clouds and Precipitation
Forecast for 2017-12-13 06:00 UTC. Updated an hour ago

Ground ~20,000 ft ~40,000 ft Winds

KDEQ

Details ICAO KDEQ
Name J LYNN HELMS SEVIER CO
Region United States
Timezone America/Chicago (UTC-6.0)
Stats Elevation 355 ft / 108 m (AMSL)
Location 34.046996° -94.399366°
Runways 1
Magnetic Variation 1.746° E

METAR

KDEQ 130153Z AUTO 08004KT 10SM CLR 00/M05 A3020 RMK AO2 SLP228 T00001050

Decode

TAF

Not found

Departure Runways

ID Width Length Bearing (true) Bearing (mag) Surface Threshold Offset Overrun Length
08 75 ft / 23 m 4,992 ft / 1,522 m 83.43° 81.68° Asphalt 0 ft / 0 m 0 ft / 0 m
26 75 ft / 23 m 4,992 ft / 1,522 m 263.44° 261.69° Asphalt 0 ft / 0 m 0 ft / 0 m

KFLP

Details ICAO KFLP
Name MARION CO RGNL
Region United States
Timezone America/Chicago (UTC-6.0)
Stats Elevation 719 ft / 219 m (AMSL)
Location 36.290895° -92.590253°
Runways 1
Magnetic Variation 0.401° E

METAR

KFLP 130156Z AUTO 28004KT 10SM CLR 01/M09 A3017 RMK AO2 SLP223 T00061094 FZRANO

Decode

TAF

Not found

Destination Runways

ID Width Length Bearing (true) Bearing (mag) Surface Threshold Offset Overrun Length
04 75 ft / 23 m 4,998 ft / 1,524 m 51.08° 50.68° Asphalt 900 ft / 274 m 200 ft / 61 m
22 75 ft / 23 m 4,998 ft / 1,524 m 231.09° 230.69° Asphalt 0 ft / 0 m 350 ft / 107 m